createdAt,value
2018-03-23T00:02:07.720Z,36.58
2018-03-23T00:04:33.851Z,36.78
2018-03-23T00:07:00.085Z,38.05
2018-03-23T00:09:26.223Z,35.28
2018-03-23T00:11:52.247Z,36.97
2018-03-23T00:14:18.306Z,36.85
2018-03-23T00:16:44.331Z,36.47
2018-03-23T00:19:10.396Z,35.83
2018-03-23T00:21:36.439Z,34.45
2018-03-23T00:24:02.659Z,37.03
2018-03-23T00:26:28.733Z,34.35
2018-03-23T00:28:55.236Z,36.65
2018-03-23T00:31:22.060Z,35.42
2018-03-23T00:33:48.944Z,32.65
2018-03-23T00:36:16.676Z,36.95
2018-03-23T00:38:42.733Z,38.10
2018-03-23T00:41:08.914Z,36.85
2018-03-23T00:43:35.515Z,37.17
2018-03-23T00:46:03.034Z,35.35
2018-03-23T00:48:29.115Z,38.15
2018-03-23T00:50:56.456Z,35.80
2018-03-23T00:53:23.337Z,35.50
2018-03-23T00:55:49.472Z,34.83
2018-03-23T00:58:15.550Z,36.90
2018-03-23T01:00:41.707Z,34.25
2018-03-23T01:03:08.381Z,35.00
2018-03-23T01:05:35.254Z,34.00
2018-03-23T01:08:01.378Z,35.20
2018-03-23T01:10:27.704Z,34.40
2018-03-23T01:12:53.935Z,34.33
2018-03-23T01:15:20.167Z,35.70
2018-03-23T01:17:46.335Z,36.10
2018-03-23T01:20:12.490Z,37.65
2018-03-23T01:22:41.177Z,38.00
2018-03-23T01:25:07.430Z,38.30
2018-03-23T01:27:33.486Z,37.00
2018-03-23T01:29:59.575Z,36.63
2018-03-23T01:32:25.717Z,39.08
2018-03-23T01:34:51.897Z,38.17
2018-03-23T01:37:18.014Z,38.70
2018-03-23T01:39:44.082Z,39.42
2018-03-23T01:42:10.147Z,40.65
2018-03-23T01:44:36.944Z,38.08
2018-03-23T01:47:03.022Z,40.12
2018-03-23T01:49:29.185Z,37.88
2018-03-23T01:51:55.523Z,39.50
2018-03-23T01:54:22.048Z,37.92
2018-03-23T01:56:48.107Z,41.45
2018-03-23T01:59:14.121Z,39.50
2018-03-23T02:01:40.255Z,43.30
2018-03-23T02:04:06.787Z,37.80
2018-03-23T02:06:33.584Z,39.80
2018-03-23T02:08:59.648Z,39.80
2018-03-23T02:11:25.790Z,40.08
2018-03-23T02:13:51.785Z,41.92
2018-03-23T02:16:18.213Z,41.40
2018-03-23T02:18:44.253Z,44.17
2018-03-23T02:21:10.257Z,43.92
2018-03-23T02:23:36.379Z,42.30
2018-03-23T02:26:02.483Z,43.85
2018-03-23T02:28:28.644Z,41.30
2018-03-23T02:30:54.768Z,44.47
2018-03-23T02:33:21.370Z,45.40
2018-03-23T02:35:48.228Z,43.75
2018-03-23T02:38:15.426Z,42.83
2018-03-23T02:40:41.647Z,42.50
2018-03-23T02:43:07.823Z,43.38
2018-03-23T02:45:33.953Z,43.10
2018-03-23T02:48:00.246Z,41.60
2018-03-23T02:50:27.134Z,44.65
2018-03-23T02:52:54.127Z,45.10
2018-03-23T02:55:21.042Z,43.70
2018-03-23T02:57:47.270Z,41.85
2018-03-23T03:00:13.356Z,45.17
2018-03-23T03:02:39.502Z,42.22
2018-03-23T03:05:06.110Z,42.92
2018-03-23T03:07:32.953Z,42.40
2018-03-23T03:09:59.204Z,41.78
2018-03-23T03:12:25.460Z,43.55
2018-03-23T03:14:51.669Z,43.63
2018-03-23T03:17:18.198Z,40.88
2018-03-23T03:19:45.186Z,42.72
2018-03-23T03:22:11.381Z,41.15
2018-03-23T03:24:37.458Z,42.45
2018-03-23T03:27:03.556Z,42.97
2018-03-23T03:29:29.768Z,39.92
2018-03-23T03:31:56.566Z,42.72
2018-03-23T03:34:22.745Z,41.53
2018-03-23T03:36:49.624Z,43.00
2018-03-23T03:39:15.718Z,42.47
2018-03-23T03:41:41.821Z,43.67
2018-03-23T03:44:08.026Z,42.90
2018-03-23T03:46:34.050Z,41.70
2018-03-23T03:49:00.121Z,42.47
2018-03-23T03:51:26.179Z,42.53
2018-03-23T03:53:52.974Z,42.78
2018-03-23T03:56:19.046Z,43.75
2018-03-23T03:58:45.131Z,42.78
2018-03-23T04:01:11.598Z,44.00
2018-03-23T04:03:37.703Z,43.25
2018-03-23T04:06:03.844Z,43.40
2018-03-23T04:08:29.971Z,41.67
2018-03-23T04:10:56.035Z,42.88
2018-03-23T04:13:22.193Z,43.85
2018-03-23T04:15:49.694Z,42.97
2018-03-23T04:18:16.253Z,42.20
2018-03-23T04:20:42.319Z,41.00
2018-03-23T04:23:09.138Z,40.80
2018-03-23T04:25:35.197Z,41.80
2018-03-23T04:28:02.332Z,42.65
2018-03-23T04:30:28.372Z,41.97
2018-03-23T04:32:55.187Z,38.70
2018-03-23T04:35:21.421Z,41.25
2018-03-23T04:37:47.459Z,43.87
2018-03-23T04:40:13.617Z,42.17
2018-03-23T04:42:39.689Z,41.72
2018-03-23T04:45:06.087Z,41.35
2018-03-23T04:47:32.095Z,40.15
2018-03-23T04:49:58.203Z,44.08
2018-03-23T04:52:24.246Z,40.85
2018-03-23T04:54:50.342Z,41.13
2018-03-23T04:57:17.121Z,42.50
2018-03-23T04:59:43.961Z,44.20
2018-03-23T05:02:10.048Z,40.20
2018-03-23T05:04:36.110Z,41.17
2018-03-23T05:07:02.241Z,42.60
2018-03-23T05:09:28.362Z,43.30
2018-03-23T05:11:54.564Z,43.92
2018-03-23T05:14:21.385Z,44.00
2018-03-23T05:16:47.464Z,42.95
2018-03-23T05:19:13.586Z,42.25
2018-03-23T05:21:39.667Z,42.33
2018-03-23T05:24:05.729Z,40.35
2018-03-23T05:26:31.818Z,41.63
2018-03-23T05:28:58.703Z,42.40
2018-03-23T05:31:24.826Z,41.53
2018-03-23T05:33:52.082Z,44.42
2018-03-23T05:36:18.123Z,40.22
2018-03-23T05:38:44.623Z,44.58
2018-03-23T05:41:10.720Z,44.17
2018-03-23T05:43:36.847Z,43.25
2018-03-23T05:46:03.610Z,40.95
2018-03-23T05:48:29.634Z,43.35
2018-03-23T05:50:55.681Z,41.42
2018-03-23T05:53:21.887Z,41.67
2018-03-23T05:55:48.510Z,42.78
2018-03-23T05:58:14.548Z,44.17
2018-03-23T06:00:43.810Z,45.63
2018-03-23T06:03:10.522Z,43.00
2018-03-23T06:05:36.598Z,44.38
2018-03-23T06:08:02.708Z,42.25
2018-03-23T06:10:30.528Z,43.70
2018-03-23T06:12:56.986Z,41.35
2018-03-23T06:15:23.278Z,44.25
2018-03-23T06:17:50.178Z,43.47
2018-03-23T06:20:18.459Z,44.55
2018-03-23T06:22:44.571Z,41.75
2018-03-23T06:25:13.352Z,45.40
2018-03-23T06:27:39.774Z,46.08
2018-03-23T06:30:05.961Z,46.22
2018-03-23T06:32:32.408Z,42.47
2018-03-23T06:34:59.174Z,40.38
2018-03-23T06:37:26.590Z,46.05
2018-03-23T06:39:53.471Z,42.75
2018-03-23T06:42:19.675Z,47.60
2018-03-23T06:44:45.996Z,43.55
2018-03-23T06:47:13.045Z,42.35
2018-03-23T06:49:41.501Z,41.80
2018-03-23T06:52:08.398Z,44.53
2018-03-23T06:54:34.668Z,44.35
2018-03-23T06:57:01.502Z,43.53
2018-03-23T06:59:28.068Z,40.75
2018-03-23T07:01:55.063Z,43.30
2018-03-23T07:04:22.013Z,42.58
2018-03-23T07:06:48.592Z,43.90
2018-03-23T07:09:15.642Z,42.42
2018-03-23T07:11:42.268Z,43.72
2018-03-23T07:14:08.826Z,48.87
2018-03-23T07:16:35.919Z,40.45
2018-03-23T07:19:02.538Z,43.53
2018-03-23T07:21:28.717Z,43.80
2018-03-23T07:23:55.790Z,42.53
2018-03-23T07:26:21.990Z,44.55
2018-03-23T07:28:50.083Z,40.85
2018-03-23T07:31:17.893Z,41.50
2018-03-23T07:33:44.215Z,44.60
2018-03-23T07:36:10.500Z,41.67
2018-03-23T07:38:37.679Z,43.05
2018-03-23T07:41:04.021Z,39.63
2018-03-23T07:43:30.152Z,43.70
2018-03-23T07:45:56.505Z,41.55
2018-03-23T07:48:22.627Z,42.58
2018-03-23T07:50:48.836Z,39.97
2018-03-23T07:53:14.940Z,39.92
2018-03-23T07:55:40.976Z,40.33
2018-03-23T07:58:07.781Z,42.83
2018-03-23T08:00:37.918Z,39.65
2018-03-23T08:03:03.973Z,40.90
2018-03-23T08:05:30.176Z,42.58
2018-03-23T08:07:56.555Z,42.45
2018-03-23T08:10:22.642Z,41.45
2018-03-23T08:12:49.311Z,38.85
2018-03-23T08:15:15.386Z,40.33
2018-03-23T08:17:41.527Z,42.55
2018-03-23T08:20:07.736Z,42.70
2018-03-23T08:22:34.785Z,41.60
2018-03-23T08:25:00.988Z,37.88
2018-03-23T08:27:27.162Z,41.20
2018-03-23T08:29:53.777Z,43.30
2018-03-23T08:32:19.949Z,39.47
2018-03-23T08:34:46.790Z,39.33
2018-03-23T08:37:12.975Z,40.97
2018-03-23T08:39:39.122Z,38.00
2018-03-23T08:42:05.267Z,39.33
2018-03-23T08:44:31.354Z,41.87
2018-03-23T08:46:58.680Z,38.80
2018-03-23T08:49:25.970Z,39.00
2018-03-23T08:51:52.892Z,39.40
2018-03-23T08:54:19.069Z,38.27
2018-03-23T08:56:45.732Z,37.90
2018-03-23T08:59:12.054Z,41.50
2018-03-23T09:01:38.173Z,38.43
2018-03-23T09:04:04.442Z,36.85
2018-03-23T09:06:30.518Z,37.85
2018-03-23T09:08:57.472Z,37.70
2018-03-23T09:11:23.880Z,36.43
2018-03-23T09:13:51.156Z,36.83
2018-03-23T09:16:17.370Z,40.60
2018-03-23T09:18:43.620Z,38.67
2018-03-23T09:21:09.793Z,35.60
2018-03-23T09:23:37.391Z,37.90
2018-03-23T09:26:04.148Z,37.60
2018-03-23T09:28:30.451Z,39.00
2018-03-23T09:30:56.472Z,37.50
2018-03-23T09:33:23.016Z,39.10
2018-03-23T09:35:50.196Z,38.00
2018-03-23T09:38:17.012Z,38.43
2018-03-23T09:40:43.353Z,37.30
2018-03-23T09:43:09.467Z,39.53
2018-03-23T09:45:36.940Z,38.13
2018-03-23T09:48:04.734Z,36.53
2018-03-23T09:50:30.809Z,36.03
2018-03-23T09:52:56.920Z,36.50
2018-03-23T09:55:23.764Z,34.10
2018-03-23T09:57:50.797Z,33.00
2018-03-23T10:00:17.606Z,34.27
2018-03-23T10:02:44.224Z,35.33
2018-03-23T10:05:10.513Z,32.57
2018-03-23T10:07:36.725Z,34.40
2018-03-23T10:10:03.434Z,35.17
2018-03-23T10:12:30.443Z,37.40
2018-03-23T10:14:57.397Z,33.77
2018-03-23T10:17:24.280Z,31.73
2018-03-23T10:19:51.565Z,34.87
2018-03-23T10:22:17.699Z,32.80
2018-03-23T10:24:43.800Z,32.57
2018-03-23T10:27:10.923Z,32.40
2018-03-23T10:29:37.024Z,32.87
2018-03-23T10:32:03.199Z,34.67
2018-03-23T10:34:30.083Z,27.20
2018-03-23T10:36:56.623Z,30.67
2018-03-23T10:39:23.010Z,31.27
2018-03-23T10:41:49.088Z,30.33
2018-03-23T10:44:15.240Z,30.37
2018-03-23T10:46:41.375Z,27.07
2018-03-23T10:49:07.493Z,29.03
2018-03-23T10:51:37.174Z,27.73
2018-03-23T10:54:03.601Z,27.97
2018-03-23T10:56:29.809Z,25.83
2018-03-23T10:58:56.535Z,26.77
2018-03-23T11:01:29.292Z,29.43
2018-03-23T11:03:57.341Z,25.97
2018-03-23T11:06:23.585Z,25.63
2018-03-23T11:08:50.246Z,26.23
2018-03-23T11:11:16.337Z,23.40
2018-03-23T11:13:42.443Z,24.80
2018-03-23T11:16:08.536Z,22.77
2018-03-23T11:18:34.752Z,22.60
2018-03-23T11:21:01.541Z,22.43
2018-03-23T11:23:27.714Z,21.27
2018-03-23T11:25:54.436Z,22.77
2018-03-23T11:28:20.772Z,21.10
2018-03-23T11:30:47.487Z,21.90
2018-03-23T11:33:14.566Z,19.93
2018-03-23T11:35:42.035Z,19.07
2018-03-23T11:38:08.140Z,21.50
2018-03-23T11:40:34.374Z,22.50
2018-03-23T11:43:01.591Z,21.57
2018-03-23T11:45:27.675Z,21.10
2018-03-23T11:47:53.796Z,20.20
2018-03-23T11:50:20.020Z,20.17
2018-03-23T11:52:46.483Z,20.37
2018-03-23T11:55:14.068Z,21.33
2018-03-23T11:57:41.052Z,19.47
2018-03-23T12:00:07.637Z,20.77
2018-03-23T12:02:33.730Z,18.07
2018-03-23T12:05:00.969Z,19.23
2018-03-23T12:07:27.181Z,20.00
2018-03-23T12:09:53.443Z,20.57
2018-03-23T12:12:20.286Z,23.10
2018-03-23T12:14:47.926Z,22.27
2018-03-23T12:17:14.180Z,22.50
2018-03-23T12:19:40.347Z,21.47
2018-03-23T12:22:08.663Z,22.43
2018-03-23T12:24:34.891Z,23.60
2018-03-23T12:27:01.897Z,23.33
2018-03-23T12:29:28.165Z,23.57
2018-03-23T12:31:54.416Z,22.07
2018-03-23T12:34:20.613Z,20.37
2018-03-23T12:36:47.630Z,20.40
2018-03-23T12:39:13.764Z,22.20
2018-03-23T12:41:41.149Z,21.40
2018-03-23T12:44:08.579Z,20.83
2018-03-23T12:46:35.549Z,23.33
2018-03-23T12:49:01.756Z,22.70
2018-03-23T12:51:27.859Z,24.00
2018-03-23T12:53:54.104Z,21.10
2018-03-23T12:56:20.368Z,21.20
2018-03-23T12:58:47.052Z,23.33
2018-03-23T13:01:13.131Z,19.90
2018-03-23T13:03:39.983Z,20.40
2018-03-23T13:06:06.656Z,20.60
2018-03-23T13:08:33.467Z,21.67
2018-03-23T13:11:00.871Z,20.33
2018-03-23T13:13:27.893Z,22.07
2018-03-23T13:15:56.882Z,22.47
2018-03-23T13:18:25.071Z,21.60
2018-03-23T13:20:55.284Z,20.27
2018-03-23T13:23:21.392Z,22.53
2018-03-23T13:25:48.514Z,21.87
2018-03-23T13:28:15.316Z,20.37
2018-03-23T13:30:42.522Z,22.13
2018-03-23T13:33:08.711Z,22.97
2018-03-23T13:35:35.744Z,23.67
2018-03-23T13:38:01.994Z,22.33
2018-03-23T13:40:28.708Z,20.63
2018-03-23T13:42:54.831Z,21.07
2018-03-23T13:45:21.117Z,20.70
2018-03-23T13:47:48.176Z,20.50
2018-03-23T13:50:15.101Z,21.00
2018-03-23T13:52:41.194Z,22.70
2018-03-23T13:55:07.485Z,21.30
2018-03-23T13:57:33.633Z,19.00
2018-03-23T14:00:00.519Z,20.13
2018-03-23T14:02:26.963Z,20.97
2018-03-23T14:04:53.363Z,22.40
2018-03-23T14:07:20.183Z,20.17
2018-03-23T14:09:47.112Z,19.90
2018-03-23T14:12:13.268Z,20.50
2018-03-23T14:14:39.558Z,21.17
2018-03-23T14:17:05.603Z,19.70
2018-03-23T14:19:31.709Z,20.47
2018-03-23T14:21:57.802Z,18.57
2018-03-23T14:24:24.688Z,21.20
2018-03-23T14:26:51.208Z,19.07
2018-03-23T14:29:18.055Z,17.53
2018-03-23T14:31:45.058Z,17.93
2018-03-23T14:34:12.482Z,18.30
2018-03-23T14:36:39.355Z,18.33
2018-03-23T14:39:06.353Z,18.50
2018-03-23T14:41:33.200Z,18.77
2018-03-23T14:43:59.412Z,17.33
2018-03-23T14:46:25.604Z,18.70
2018-03-23T14:48:51.779Z,18.13
2018-03-23T14:51:18.075Z,19.17
2018-03-23T14:53:44.438Z,16.70
2018-03-23T14:56:10.667Z,17.53
2018-03-23T14:58:43.223Z,17.87
2018-03-23T15:01:09.355Z,20.40
2018-03-23T15:03:35.763Z,16.83
2018-03-23T15:06:01.934Z,18.83
2018-03-23T15:08:28.946Z,18.83
2018-03-23T15:10:55.886Z,18.77
2018-03-23T15:13:22.549Z,18.37
2018-03-23T15:15:49.715Z,17.50
2018-03-23T15:18:16.000Z,20.00
2018-03-23T15:20:42.263Z,19.40
2018-03-23T15:23:08.908Z,21.10
2018-03-23T15:25:36.077Z,18.93
2018-03-23T15:28:02.594Z,20.53
2018-03-23T15:30:29.402Z,21.97
2018-03-23T15:32:56.110Z,20.07
2018-03-23T15:35:22.334Z,21.30
2018-03-23T15:37:49.962Z,22.67
2018-03-23T15:40:16.656Z,23.13
2018-03-23T15:42:43.867Z,22.80
2018-03-23T15:45:10.079Z,22.43
2018-03-23T15:47:37.110Z,23.20
2018-03-23T15:50:03.253Z,25.37
2018-03-23T15:52:30.078Z,22.47
2018-03-23T15:54:56.842Z,24.73
2018-03-23T15:57:23.706Z,25.57
2018-03-23T15:59:50.954Z,23.40
2018-03-23T16:02:18.090Z,24.10
2018-03-23T16:04:44.284Z,24.60
2018-03-23T16:07:10.495Z,24.70
2018-03-23T16:09:37.489Z,23.40
2018-03-23T16:12:11.139Z,23.90
2018-03-23T16:14:38.421Z,23.30
2018-03-23T16:17:04.794Z,26.13
2018-03-23T16:19:31.770Z,25.93
2018-03-23T16:21:58.043Z,26.10
2018-03-23T16:24:24.760Z,24.20
2018-03-23T16:26:50.996Z,26.73
2018-03-23T16:29:17.186Z,26.20
2018-03-23T16:31:43.368Z,24.10
2018-03-23T16:34:09.449Z,25.97
2018-03-23T16:36:35.588Z,25.17
2018-03-23T16:39:01.724Z,25.23
2018-03-23T16:41:28.692Z,26.70
2018-03-23T16:43:55.135Z,24.50
2018-03-23T16:46:22.358Z,25.77
2018-03-23T16:48:48.615Z,26.67
2018-03-23T16:51:14.845Z,25.63
2018-03-23T16:53:41.150Z,27.10
2018-03-23T16:56:08.584Z,23.80
2018-03-23T16:58:35.752Z,24.53
2018-03-23T17:01:01.989Z,25.57
2018-03-23T17:03:29.387Z,25.40
2018-03-23T17:05:56.243Z,26.77
2018-03-23T17:08:22.450Z,24.60
2018-03-23T17:10:49.075Z,23.63
2018-03-23T17:13:15.408Z,25.43
2018-03-23T17:15:42.111Z,26.40
2018-03-23T17:18:08.210Z,25.70
2018-03-23T17:20:35.091Z,28.63
2018-03-23T17:23:01.254Z,26.63
2018-03-23T17:25:27.979Z,26.00
2018-03-23T17:27:54.075Z,24.67
2018-03-23T17:30:20.338Z,24.10
2018-03-23T17:32:46.453Z,25.57
2018-03-23T17:35:14.718Z,24.33
2018-03-23T17:37:40.904Z,24.03
2018-03-23T17:40:08.614Z,25.07
2018-03-23T17:42:35.404Z,26.30
2018-03-23T17:45:02.272Z,26.93
2018-03-23T17:47:29.065Z,24.70
2018-03-23T17:49:55.931Z,25.53
2018-03-23T17:52:22.816Z,25.00
2018-03-23T17:54:51.556Z,26.43
2018-03-23T17:57:18.395Z,26.83
2018-03-23T17:59:45.305Z,25.50
2018-03-23T18:02:12.146Z,27.57
2018-03-23T18:04:38.801Z,26.97
2018-03-23T18:07:05.112Z,25.53
2018-03-23T18:09:31.941Z,25.90
2018-03-23T18:12:00.236Z,26.23
2018-03-23T18:14:29.671Z,25.67
2018-03-23T18:16:56.659Z,25.27
2018-03-23T18:19:27.676Z,26.30
2018-03-23T18:21:54.545Z,25.47
2018-03-23T18:24:21.233Z,27.60
2018-03-23T18:26:48.534Z,30.90
2018-03-23T18:29:14.885Z,30.37
2018-03-23T18:31:41.166Z,25.30
2018-03-23T18:34:07.383Z,26.87
2018-03-23T18:36:33.542Z,26.63
2018-03-23T18:38:59.644Z,25.07
2018-03-23T18:41:25.793Z,25.53
2018-03-23T18:43:53.237Z,25.70
2018-03-23T18:46:19.435Z,26.07
2018-03-23T18:48:46.548Z,24.13
2018-03-23T18:51:12.742Z,24.40
2018-03-23T18:53:39.695Z,24.50
2018-03-23T18:56:06.906Z,24.20
2018-03-23T18:58:34.120Z,23.60
2018-03-23T19:01:00.710Z,22.97
2018-03-23T19:03:27.652Z,24.37
2018-03-23T19:05:54.323Z,23.20
2018-03-23T19:08:20.645Z,25.50
2018-03-23T19:10:47.183Z,24.63
2018-03-23T19:13:13.970Z,25.90
2018-03-23T19:15:40.564Z,28.13
2018-03-23T19:18:06.658Z,25.70
2018-03-23T19:20:33.941Z,24.30
2018-03-23T19:23:00.986Z,25.67
2018-03-23T19:25:30.909Z,24.37
2018-03-23T19:27:57.899Z,25.30
2018-03-23T19:30:25.703Z,23.70
2018-03-23T19:32:53.124Z,25.17
2018-03-23T19:35:20.065Z,26.87
2018-03-23T19:37:46.545Z,24.17
2018-03-23T19:40:12.745Z,25.60
2018-03-23T19:42:39.605Z,28.03
2018-03-23T19:45:05.841Z,25.90
2018-03-23T19:47:32.252Z,26.87
2018-03-23T19:49:59.968Z,28.27
2018-03-23T19:52:26.262Z,25.90
2018-03-23T19:54:52.368Z,26.33
2018-03-23T19:57:19.522Z,27.40
2018-03-23T19:59:45.658Z,38.13
2018-03-23T20:02:11.994Z,27.43
2018-03-23T20:04:38.206Z,27.70
2018-03-23T20:07:04.974Z,28.97
2018-03-23T20:09:31.802Z,26.67
2018-03-23T20:12:00.935Z,25.57
2018-03-23T20:14:27.069Z,24.53
2018-03-23T20:16:53.182Z,24.87
2018-03-23T20:19:19.312Z,28.73
2018-03-23T20:21:46.428Z,26.00
2018-03-23T20:24:19.627Z,25.70
2018-03-23T20:26:45.891Z,25.50
2018-03-23T20:29:11.952Z,26.60
2018-03-23T20:31:44.544Z,25.63
2018-03-23T20:34:10.684Z,25.90
2018-03-23T20:36:37.721Z,27.90
2018-03-23T20:39:04.564Z,30.20
2018-03-23T20:41:30.620Z,28.60
2018-03-23T20:43:57.391Z,26.53
2018-03-23T20:46:23.562Z,27.90
2018-03-23T20:48:49.665Z,26.50
2018-03-23T20:51:15.810Z,26.37
2018-03-23T20:53:42.279Z,27.70
2018-03-23T20:56:08.729Z,27.27
2018-03-23T20:58:36.623Z,26.07
2018-03-23T21:01:04.389Z,28.10
2018-03-23T21:03:30.548Z,25.20
2018-03-23T21:05:56.686Z,27.77
2018-03-23T21:08:23.089Z,27.30
2018-03-23T21:10:49.872Z,24.63
2018-03-23T21:13:16.797Z,25.90
2018-03-23T21:15:43.114Z,29.47
2018-03-23T21:18:10.880Z,25.33
2018-03-23T21:20:37.054Z,26.00
2018-03-23T21:23:03.385Z,23.53
2018-03-23T21:25:31.389Z,26.50
2018-03-23T21:27:57.513Z,26.80
2018-03-23T21:30:24.767Z,26.17
2018-03-23T21:32:50.913Z,27.73
2018-03-23T21:35:17.696Z,26.73
2018-03-23T21:37:44.889Z,25.90
2018-03-23T21:40:11.087Z,26.40
2018-03-23T21:42:37.880Z,25.87
2018-03-23T21:45:04.006Z,26.83
2018-03-23T21:47:30.251Z,26.13
2018-03-23T21:49:56.442Z,25.70
2018-03-23T21:52:22.561Z,27.80
2018-03-23T21:54:48.714Z,30.00
2018-03-23T21:57:14.839Z,28.27
2018-03-23T21:59:41.015Z,27.33
2018-03-23T22:02:07.144Z,29.80
2018-03-23T22:04:33.262Z,26.97
2018-03-23T22:06:59.959Z,28.90
2018-03-23T22:09:27.047Z,28.47
2018-03-23T22:11:54.160Z,28.37
2018-03-23T22:14:21.824Z,31.53
2018-03-23T22:16:49.407Z,28.00
2018-03-23T22:19:15.818Z,32.07
2018-03-23T22:21:42.071Z,30.63
2018-03-23T22:24:09.112Z,28.03
2018-03-23T22:26:35.208Z,30.57
2018-03-23T22:29:01.298Z,29.30
2018-03-23T22:31:28.089Z,27.43
2018-03-23T22:33:54.229Z,28.10
2018-03-23T22:36:20.449Z,29.20
2018-03-23T22:38:46.596Z,26.80
2018-03-23T22:41:12.954Z,29.97
2018-03-23T22:43:39.918Z,28.23
2018-03-23T22:46:06.840Z,31.47
2018-03-23T22:48:33.704Z,27.20
2018-03-23T22:51:00.682Z,27.63
2018-03-23T22:53:27.414Z,24.40
2018-03-23T22:55:54.499Z,27.80
2018-03-23T22:58:21.107Z,27.67
2018-03-23T23:00:47.976Z,28.77
2018-03-23T23:03:14.238Z,27.60
2018-03-23T23:05:40.791Z,28.27
2018-03-23T23:08:06.997Z,26.50
2018-03-23T23:10:34.251Z,27.90
2018-03-23T23:13:00.838Z,29.23
2018-03-23T23:15:26.999Z,31.17
2018-03-23T23:17:53.971Z,30.30
2018-03-23T23:20:20.175Z,27.90
2018-03-23T23:22:46.958Z,27.03
2018-03-23T23:25:14.146Z,30.80
2018-03-23T23:27:40.674Z,28.63
2018-03-23T23:30:06.885Z,29.87
2018-03-23T23:32:33.105Z,26.43
2018-03-23T23:35:00.371Z,28.73
2018-03-23T23:37:27.065Z,27.80
2018-03-23T23:39:53.350Z,29.90
2018-03-23T23:42:19.935Z,27.70
2018-03-23T23:44:46.066Z,29.47
2018-03-23T23:47:12.166Z,30.00
2018-03-23T23:49:38.703Z,28.30
2018-03-23T23:52:04.792Z,30.20
2018-03-23T23:54:32.128Z,27.73
2018-03-23T23:56:58.196Z,29.33
2018-03-23T23:59:25.314Z,31.27
